Time;durP1;ratioP1;P1;durP2;ratioP2;P2;SDS_P1;SDS_P2;PMS_P1;PMS_P2;Temp;Humidity;BMP_temperature;BMP_pressure;BME280_temperature;BME280_humidity;BME280_pressure;Samples;Min_cycle;Max_cycle;Signal;HPM_P1;HPM_P2
2022/12/27 00:01:58;;;;;;;8.43;4.68;;;23.70;48.60;;;;;;6083321;28;80495;-60
2022/12/27 00:05:00;;;;;;;6.22;4.43;;;23.70;48.60;;;;;;6073912;28;81144;-59
2022/12/27 00:08:00;;;;;;;6.65;4.20;;;23.70;48.50;;;;;;6062920;28;80503;-59
2022/12/27 00:11:01;;;;;;;7.72;4.32;;;23.70;48.50;;;;;;6072834;28;81003;-60
2022/12/27 00:14:02;;;;;;;7.10;4.35;;;23.70;48.60;;;;;;6060163;28;80535;-66
2022/12/27 00:17:02;;;;;;;7.03;4.85;;;23.70;48.50;;;;;;6060618;28;80839;-67
2022/12/27 00:20:03;;;;;;;7.05;4.35;;;23.70;48.50;;;;;;6070171;28;80634;-67
2022/12/27 00:23:03;;;;;;;6.30;3.63;;;23.70;48.60;;;;;;6064485;28;83150;-67
2022/12/27 00:26:04;;;;;;;5.88;4.03;;;23.70;48.40;;;;;;6080971;28;80595;-68
2022/12/27 00:29:04;;;;;;;4.15;3.28;;;23.70;48.30;;;;;;6063961;28;81171;-66
2022/12/27 00:32:05;;;;;;;4.65;3.42;;;23.70;48.90;;;;;;6063258;28;80347;-67
2022/12/27 00:35:05;;;;;;;5.18;3.42;;;23.70;48.60;;;;;;6080571;28;80412;-68
2022/12/27 00:38:06;;;;;;;5.20;3.42;;;23.70;48.60;;;;;;6065665;28;80098;-72
2022/12/27 00:41:06;;;;;;;5.82;3.97;;;23.70;48.40;;;;;;6083918;28;83722;-68
2022/12/27 00:44:07;;;;;;;3.72;3.22;;;23.70;48.40;;;;;;6085734;28;80390;-72
2022/12/27 00:47:08;;;;;;;4.40;3.15;;;23.70;48.10;;;;;;6094102;28;80747;-71
2022/12/27 00:50:08;;;;;;;5.00;3.53;;;23.70;48.00;;;;;;6093173;28;82065;-60
2022/12/27 00:53:09;;;;;;;3.85;3.28;;;23.60;47.80;;;;;;6090314;28;81343;-60
2022/12/27 00:56:09;;;;;;;4.55;3.22;;;23.70;48.00;;;;;;6082058;28;82883;-60
2022/12/27 00:59:10;;;;;;;5.18;3.08;;;23.60;48.00;;;;;;6095385;28;82511;-60
2022/12/27 01:02:10;;;;;;;3.70;2.75;;;23.70;47.90;;;;;;6084432;28;80444;-60
2022/12/27 01:05:11;;;;;;;4.70;2.72;;;23.70;47.90;;;;;;6082945;28;80889;-60
2022/12/27 01:08:11;;;;;;;3.83;2.75;;;23.60;47.80;;;;;;6102916;28;82085;-65
2022/12/27 01:11:12;;;;;;;3.22;2.50;;;23.60;47.80;;;;;;6094508;28;80989;-64
2022/12/27 01:14:12;;;;;;;3.85;2.47;;;23.60;48.20;;;;;;6078774;28;80870;-65
2022/12/27 01:17:13;;;;;;;3.35;2.92;;;23.60;48.50;;;;;;6081961;28;81077;-64
2022/12/27 01:20:13;;;;;;;3.33;2.30;;;23.60;48.40;;;;;;6101140;28;80294;-65
2022/12/27 01:23:14;;;;;;;3.28;2.63;;;23.60;48.10;;;;;;6103391;28;80648;-63
2022/12/27 01:26:15;;;;;;;3.55;2.50;;;23.60;48.30;;;;;;6086703;28;80894;-65
2022/12/27 01:29:15;;;;;;;2.88;2.33;;;23.60;48.30;;;;;;6085849;28;80307;-66
2022/12/27 01:32:16;;;;;;;3.92;2.55;;;23.60;48.40;;;;;;6089177;28;80391;-68
2022/12/27 01:35:17;;;;;;;2.88;2.30;;;23.60;48.40;;;;;;6092976;28;82225;-68
2022/12/27 01:38:17;;;;;;;2.75;2.30;;;23.50;48.20;;;;;;6091693;28;80483;-67
2022/12/27 01:47:38;;;;;;;4.63;2.58;;;23.60;48.20;;;;;;6087725;28;80873;-67
2022/12/27 01:50:38;;;;;;;3.55;2.15;;;23.50;48.10;;;;;;6087638;28;81174;-68
2022/12/27 01:53:39;;;;;;;3.00;2.30;;;23.50;48.30;;;;;;6075875;28;81713;-64
2022/12/27 01:56:39;;;;;;;2.47;2.28;;;23.50;48.00;;;;;;6078801;28;80388;-70
2022/12/27 01:59:40;;;;;;;2.40;2.00;;;23.50;47.80;;;;;;6093287;28;80099;-71
2022/12/27 02:02:40;;;;;;;2.85;2.00;;;23.50;48.40;;;;;;6105065;28;80630;-70
2022/12/27 02:05:41;;;;;;;2.40;2.05;;;23.50;48.00;;;;;;6095987;28;81659;-60
2022/12/27 02:08:41;;;;;;;2.53;2.33;;;23.50;48.00;;;;;;6104953;28;81198;-59
2022/12/27 02:11:51;;;;;;;3.25;2.42;;;23.50;47.60;;;;;;6104266;28;81033;-58
2022/12/27 02:14:51;;;;;;;2.25;2.05;;;23.50;47.90;;;;;;6103652;28;80409;-59
2022/12/27 02:17:52;;;;;;;2.70;2.00;;;23.50;47.60;;;;;;6113735;28;81271;-59
2022/12/27 02:20:53;;;;;;;2.95;2.10;;;23.50;48.00;;;;;;6103324;28;81850;-59
2022/12/27 02:24:02;;;;;;;2.72;2.53;;;23.50;47.70;;;;;;6109228;28;80585;-67
2022/12/27 02:27:03;;;;;;;2.28;2.08;;;23.50;47.60;;;;;;6098518;28;82322;-66
2022/12/27 02:30:03;;;;;;;2.30;2.10;;;23.60;48.00;;;;;;6102276;28;81533;-67
2022/12/27 02:33:04;;;;;;;2.33;2.13;;;23.50;47.50;;;;;;6102872;28;81013;-66
2022/12/27 02:36:04;;;;;;;3.25;2.40;;;23.50;47.70;;;;;;6102822;28;81535;-67
2022/12/27 02:39:05;;;;;;;2.50;2.00;;;23.50;47.80;;;;;;6101885;28;80196;-67
2022/12/27 02:55:22;;;;;;;2.00;1.80;;;23.60;48.60;;;;;;6106969;28;83464;-65
2022/12/27 02:58:23;;;;;;;1.75;1.65;;;23.60;48.50;;;;;;6095819;28;80632;-66
2022/12/27 03:04:43;;;;;;;2.10;1.90;;;23.60;47.90;;;;;;6097162;28;81935;-73
2022/12/27 03:07:43;;;;;;;1.75;1.65;;;23.60;47.90;;;;;;6098153;28;80746;-73
2022/12/27 03:17:23;;;;;;;1.58;1.48;;;23.60;48.00;;;;;;6102602;28;85200;-66
2022/12/27 03:27:02;;;;;;;1.58;1.48;;;23.60;48.00;;;;;;6096452;28;80397;-66
2022/12/27 03:33:22;;;;;;;1.50;1.25;;;23.60;48.10;;;;;;6103307;28;80971;-66
2022/12/27 03:39:42;;;;;;;1.35;1.25;;;23.60;48.10;;;;;;6107308;28;81221;-69
2022/12/27 03:49:21;;;;;;;1.38;1.27;;;23.60;48.20;;;;;;6106499;28;80534;-68
2022/12/27 03:52:22;;;;;;;2.20;1.33;;;23.60;48.30;;;;;;6107900;28;80885;-68
2022/12/27 03:55:22;;;;;;;1.30;1.20;;;23.60;48.10;;;;;;6107126;28;80612;-71
2022/12/27 03:58:23;;;;;;;1.45;1.23;;;23.60;48.10;;;;;;6106694;28;81155;-68
2022/12/27 04:01:23;;;;;;;1.42;1.33;;;23.60;48.00;;;;;;6107295;28;80595;-72
2022/12/27 04:04:24;;;;;;;1.80;1.27;;;23.60;48.00;;;;;;6102679;28;81025;-73
2022/12/27 04:07:24;;;;;;;1.65;1.20;;;23.60;48.10;;;;;;6097218;28;81220;-73
2022/12/27 04:37:01;;;;;;;3.63;1.38;;;23.80;48.20;;;;;;6102679;28;88340;-69
2022/12/27 04:56:39;;;;;;;1.50;1.20;;;23.90;48.70;;;;;;6079226;28;81511;-65
2022/12/27 05:02:58;;;;;;;1.58;1.20;;;24.00;48.80;;;;;;6077070;28;80890;-65
2022/12/27 05:05:59;;;;;;;1.25;1.15;;;24.00;49.00;;;;;;6059772;28;81518;-66
2022/12/27 05:15:49;;;;;;;2.35;1.23;;;24.00;49.40;;;;;;6081493;28;82215;-72
2022/12/27 05:18:49;;;;;;;1.77;1.38;;;24.00;49.40;;;;;;6082338;28;81427;-71
2022/12/27 05:28:29;;;;;;;2.55;1.10;;;24.10;48.80;;;;;;6070346;28;84948;-71
2022/12/27 05:31:29;;;;;;;1.73;1.20;;;24.10;48.90;;;;;;6083007;28;81494;-71
2022/12/27 05:34:30;;;;;;;3.05;1.08;;;24.10;48.90;;;;;;6080543;28;80591;-73
2022/12/27 05:37:30;;;;;;;6.57;1.38;;;24.10;48.80;;;;;;6096102;28;81425;-72
2022/12/27 05:40:31;;;;;;;1.33;1.23;;;24.10;48.70;;;;;;6098327;28;84385;-71
2022/12/27 05:43:31;;;;;;;7.43;1.33;;;24.10;48.70;;;;;;6083103;28;81861;-79
2022/12/27 05:46:32;;;;;;;2.80;1.20;;;24.10;49.50;;;;;;6100617;28;80480;-74
2022/12/27 05:49:32;;;;;;;4.07;1.30;;;24.10;49.70;;;;;;6095135;28;80743;-67
2022/12/27 05:52:33;;;;;;;1.10;1.00;;;24.10;49.30;;;;;;6096324;28;82907;-68
2022/12/27 05:55:33;;;;;;;1.15;0.95;;;24.20;49.30;;;;;;6090045;28;80932;-71
2022/12/27 05:58:34;;;;;;;1.00;0.90;;;24.20;49.30;;;;;;6095241;28;81114;-71
2022/12/27 06:01:34;;;;;;;2.20;1.20;;;24.20;49.40;;;;;;6053035;28;83791;-68
2022/12/27 06:04:35;;;;;;;1.35;1.08;;;24.20;49.10;;;;;;5852368;28;83933;-67
2022/12/27 06:07:36;;;;;;;4.13;1.33;;;24.20;49.00;;;;;;6065539;28;83535;-64
2022/12/27 06:10:36;;;;;;;1.20;1.10;;;24.20;48.60;;;;;;6087841;28;80953;-67
2022/12/27 06:13:37;;;;;;;2.63;1.00;;;24.20;48.40;;;;;;6081051;28;83453;-64
2022/12/27 06:16:37;;;;;;;2.75;1.00;;;24.20;48.70;;;;;;6077858;28;81297;-62
2022/12/27 06:19:38;;;;;;;2.60;1.00;;;24.10;48.80;;;;;;6090612;28;81158;-61
2022/12/27 06:22:39;;;;;;;3.10;1.00;;;24.10;49.10;;;;;;6087411;28;82708;-65
2022/12/27 06:25:39;;;;;;;1.42;0.90;;;24.10;48.70;;;;;;6089876;28;80564;-65
2022/12/27 06:28:40;;;;;;;1.90;1.20;;;24.10;48.70;;;;;;6061673;28;82639;-66
2022/12/27 06:31:43;;;;;;;1.00;0.95;;;24.10;48.60;;;;;;6084003;28;85767;-62
2022/12/27 06:34:44;;;;;;;1.67;0.98;;;24.10;48.70;;;;;;6059491;28;85314;-65
2022/12/27 06:37:44;;;;;;;2.72;1.30;;;24.10;48.80;;;;;;6090030;28;80877;-62
2022/12/27 06:40:45;;;;;;;1.00;0.90;;;24.00;48.50;;;;;;6098097;28;81609;-61
2022/12/27 06:43:46;;;;;;;1.52;1.13;;;24.00;48.30;;;;;;6097231;28;80630;-58
2022/12/27 06:46:46;;;;;;;7.15;1.50;;;24.00;48.20;;;;;;6099719;28;82333;-60
2022/12/27 06:49:47;;;;;;;3.53;0.90;;;24.00;48.10;;;;;;6091776;28;80900;-62
2022/12/27 06:52:47;;;;;;;3.78;1.17;;;24.00;48.00;;;;;;6096775;28;82116;-67
2022/12/27 06:55:48;;;;;;;1.40;0.75;;;24.00;48.00;;;;;;6103073;28;83940;-66
2022/12/27 06:58:48;;;;;;;3.67;1.23;;;23.90;47.60;;;;;;6095446;28;80770;-66
2022/12/27 07:01:49;;;;;;;1.10;1.00;;;23.90;47.40;;;;;;6084999;28;82417;-65
2022/12/27 07:04:49;;;;;;;3.83;1.15;;;23.90;47.50;;;;;;6095585;28;82527;-67
2022/12/27 07:07:52;;;;;;;2.30;1.10;;;23.90;47.20;;;;;;6095503;28;80897;-67
2022/12/27 07:10:53;;;;;;;2.10;1.42;;;23.80;47.10;;;;;;6090916;28;80503;-69
2022/12/27 07:13:53;;;;;;;3.17;1.73;;;23.80;47.10;;;;;;6092860;28;80428;-71
2022/12/27 07:16:54;;;;;;;4.13;2.22;;;23.80;47.30;;;;;;6094720;28;80921;-70
2022/12/27 07:19:54;;;;;;;3.90;1.52;;;23.80;47.30;;;;;;6081107;28;85809;-72
2022/12/27 07:22:57;;;;;;;2.60;1.77;;;23.80;47.40;;;;;;6088651;28;82859;-70
2022/12/27 07:25:58;;;;;;;3.65;1.80;;;23.80;47.40;;;;;;6084035;28;82086;-72
2022/12/27 07:28:58;;;;;;;3.33;1.90;;;23.80;47.30;;;;;;6090527;28;81746;-74
2022/12/27 07:31:59;;;;;;;4.32;2.20;;;23.80;47.20;;;;;;6087238;28;80987;-72
2022/12/27 07:35:00;;;;;;;3.78;2.22;;;23.80;47.30;;;;;;6098736;28;85834;-68
2022/12/27 07:38:00;;;;;;;3.35;1.98;;;23.80;47.20;;;;;;6092460;28;80403;-70
2022/12/27 07:41:01;;;;;;;3.67;2.10;;;23.80;47.20;;;;;;6081542;28;82065;-71
2022/12/27 07:44:02;;;;;;;4.90;2.40;;;23.80;47.20;;;;;;6080829;28;81647;-75
2022/12/27 07:47:02;;;;;;;4.53;1.92;;;23.80;47.20;;;;;;6090389;28;80473;-67
2022/12/27 07:50:03;;;;;;;3.33;1.98;;;23.80;47.00;;;;;;6070976;28;82676;-71
2022/12/27 07:53:03;;;;;;;3.40;1.92;;;23.80;47.10;;;;;;6081023;28;85872;-74
2022/12/27 07:56:04;;;;;;;6.28;1.98;;;23.80;47.00;;;;;;6072515;28;80419;-67
2022/12/27 07:59:04;;;;;;;3.55;1.80;;;23.80;46.80;;;;;;6075032;28;81504;-67
2022/12/27 08:02:05;;;;;;;3.15;1.90;;;23.80;46.80;;;;;;6069827;28;81538;-72
2022/12/27 08:05:06;;;;;;;2.60;1.70;;;23.80;47.40;;;;;;6095318;28;80839;-73
2022/12/27 08:08:06;;;;;;;5.63;1.90;;;23.80;46.90;;;;;;6101566;28;81178;-74
2022/12/27 08:11:07;;;;;;;5.85;2.65;;;23.80;46.80;;;;;;6092480;28;81144;-70
2022/12/27 08:14:07;;;;;;;5.05;2.05;;;23.80;46.70;;;;;;6095339;28;82184;-69
2022/12/27 08:17:08;;;;;;;5.13;2.00;;;23.80;46.70;;;;;;6096674;28;81392;-71
2022/12/27 08:20:08;;;;;;;4.97;1.92;;;23.80;46.60;;;;;;6089620;28;80451;-74
2022/12/27 08:23:09;;;;;;;3.70;1.58;;;23.80;46.80;;;;;;6081991;28;80466;-71
2022/12/27 08:26:09;;;;;;;3.78;1.83;;;23.80;46.80;;;;;;6091740;28;82830;-68
2022/12/27 08:29:10;;;;;;;5.35;2.20;;;23.80;46.60;;;;;;6094225;28;80692;-64
2022/12/27 08:32:10;;;;;;;6.05;1.75;;;23.80;46.60;;;;;;6094075;28;80535;-61
2022/12/27 08:35:11;;;;;;;5.30;1.75;;;23.80;46.60;;;;;;6085926;28;81586;-60
2022/12/27 08:38:11;;;;;;;3.83;1.77;;;23.80;46.60;;;;;;6090749;28;82164;-61
2022/12/27 08:41:12;;;;;;;5.00;1.90;;;23.80;46.60;;;;;;6078362;28;80680;-61
2022/12/27 08:44:12;;;;;;;18.77;2.33;;;23.80;46.60;;;;;;6090533;28;80786;-59
2022/12/27 08:47:13;;;;;;;22.80;2.40;;;23.80;46.40;;;;;;6081487;28;80671;-62
2022/12/27 08:50:13;;;;;;;25.98;3.30;;;23.90;46.10;;;;;;6087257;28;80960;-65
2022/12/27 08:53:15;;;;;;;13.98;2.33;;;23.80;46.50;;;;;;6091457;28;80824;-65
2022/12/27 08:56:15;;;;;;;15.88;2.70;;;23.80;46.30;;;;;;6086536;28;80814;-65
2022/12/27 08:59:16;;;;;;;10.02;3.47;;;23.80;46.10;;;;;;6073706;28;82135;-63
2022/12/27 09:02:17;;;;;;;5.75;2.60;;;23.80;46.40;;;;;;6080689;28;80317;-63
2022/12/27 09:05:18;;;;;;;7.93;2.83;;;23.80;46.30;;;;;;6095583;28;80367;-63
2022/12/27 09:08:19;;;;;;;9.43;2.80;;;23.80;46.40;;;;;;6094959;28;82058;-67
2022/12/27 09:11:19;;;;;;;8.77;2.67;;;23.80;46.00;;;;;;6098131;28;82046;-67
2022/12/27 09:14:20;;;;;;;9.05;2.90;;;23.80;46.40;;;;;;6100819;28;87143;-66
2022/12/27 09:17:23;;;;;;;6.70;2.17;;;23.80;46.30;;;;;;6095588;28;80663;-66
2022/12/27 09:20:23;;;;;;;7.88;2.75;;;23.80;46.30;;;;;;6091756;28;82073;-67
2022/12/27 09:23:24;;;;;;;10.25;3.10;;;23.80;46.90;;;;;;6089199;28;80640;-67
2022/12/27 09:26:25;;;;;;;8.85;3.38;;;24.00;47.20;;;;;;6095417;28;80893;-66
2022/12/27 09:29:25;;;;;;;5.55;2.97;;;24.10;48.20;;;;;;6091860;28;80772;-66
2022/12/27 09:32:26;;;;;;;9.00;2.67;;;24.30;47.00;;;;;;6078364;28;81414;-66
2022/12/27 09:35:26;;;;;;;10.27;2.45;;;24.30;46.60;;;;;;6096559;28;82223;-67
2022/12/27 09:38:27;;;;;;;4.63;2.40;;;24.40;46.90;;;;;;6092049;28;80283;-66
2022/12/27 09:41:27;;;;;;;11.10;3.28;;;24.30;47.70;;;;;;6113849;28;80359;-66
2022/12/27 09:44:28;;;;;;;8.57;2.50;;;24.40;47.40;;;;;;6095225;28;81975;-67
2022/12/27 09:47:28;;;;;;;5.47;2.40;;;24.40;47.00;;;;;;6068006;28;80663;-66
2022/12/27 09:50:29;;;;;;;7.50;2.65;;;24.30;47.20;;;;;;6067539;28;82757;-63
2022/12/27 09:53:29;;;;;;;5.70;2.60;;;24.30;48.60;;;;;;6065130;28;80795;-66
2022/12/27 09:56:30;;;;;;;8.90;3.03;;;24.30;47.90;;;;;;6059201;28;80863;-65
2022/12/27 09:59:30;;;;;;;5.05;2.78;;;24.30;47.90;;;;;;6071044;28;82689;-66
2022/12/27 10:02:31;;;;;;;5.88;2.78;;;24.30;49.10;;;;;;6090031;28;80047;-63
2022/12/27 10:05:32;;;;;;;5.65;2.65;;;24.40;48.60;;;;;;6085024;28;81433;-63
2022/12/27 10:08:32;;;;;;;8.43;2.85;;;24.40;49.60;;;;;;6098335;28;80439;-63
2022/12/27 10:11:36;;;;;;;6.32;2.70;;;24.40;48.90;;;;;;6085217;28;81372;-63
2022/12/27 10:14:36;;;;;;;7.72;2.30;;;24.50;48.10;;;;;;6073198;28;81357;-63
2022/12/27 10:17:37;;;;;;;6.53;2.60;;;24.70;47.50;;;;;;6079880;28;84314;-63
2022/12/27 10:20:37;;;;;;;9.13;3.05;;;24.70;46.90;;;;;;6094511;28;83991;-65
2022/12/27 10:23:38;;;;;;;7.65;2.80;;;24.80;46.30;;;;;;6093184;28;82038;-65
2022/12/27 10:26:39;;;;;;;7.93;2.85;;;24.90;45.90;;;;;;6090137;28;80836;-68
2022/12/27 10:29:39;;;;;;;6.88;2.22;;;25.00;46.10;;;;;;6098054;28;82076;-67
2022/12/27 10:32:40;;;;;;;8.18;4.00;;;25.10;45.50;;;;;;6090086;28;81034;-66
2022/12/27 10:35:40;;;;;;;5.32;3.40;;;25.30;46.00;;;;;;6076676;28;80793;-66
2022/12/27 10:38:41;;;;;;;7.47;3.65;;;25.30;45.60;;;;;;6070225;28;81807;-67
2022/12/27 10:41:41;;;;;;;9.38;4.95;;;25.50;45.60;;;;;;6099663;28;80309;-66
2022/12/27 10:44:42;;;;;;;9.30;4.90;;;25.50;45.70;;;;;;6110598;28;80292;-66
2022/12/27 10:47:42;;;;;;;8.15;4.90;;;25.60;46.10;;;;;;6091731;28;83492;-64
2022/12/27 10:50:43;;;;;;;9.20;4.60;;;25.60;45.70;;;;;;6084769;28;80389;-65
2022/12/27 10:53:43;;;;;;;7.18;4.07;;;25.50;42.80;;;;;;6091327;28;81218;-66
2022/12/27 10:56:44;;;;;;;8.25;4.38;;;25.50;43.50;;;;;;6070878;28;81202;-75
2022/12/27 10:59:45;;;;;;;7.25;3.90;;;25.40;43.40;;;;;;6068982;28;81649;-71
2022/12/27 11:02:46;;;;;;;6.38;3.75;;;25.50;42.70;;;;;;6072654;28;85262;-71
2022/12/27 11:05:46;;;;;;;6.68;3.65;;;25.50;41.90;;;;;;6080659;28;80580;-70
2022/12/27 11:08:47;;;;;;;7.40;3.13;;;25.50;41.20;;;;;;6091299;28;81861;-71
2022/12/27 11:11:47;;;;;;;5.53;3.05;;;25.50;40.20;;;;;;6092997;28;83386;-72
2022/12/27 11:14:48;;;;;;;8.05;3.35;;;25.50;39.70;;;;;;6108854;28;81192;-65
2022/12/27 11:17:48;;;;;;;7.22;3.55;;;25.50;39.00;;;;;;6101751;28;80831;-64
2022/12/27 11:20:49;;;;;;;9.13;3.25;;;25.50;38.50;;;;;;6101130;28;81885;-64
2022/12/27 11:23:49;;;;;;;6.15;2.70;;;25.40;38.10;;;;;;6114816;28;83489;-62
2022/12/27 11:26:50;;;;;;;7.38;3.25;;;25.30;38.00;;;;;;6088874;28;81122;-63
2022/12/27 11:29:50;;;;;;;6.32;3.05;;;25.30;36.40;;;;;;6095639;28;80626;-64
2022/12/27 11:32:51;;;;;;;6.25;3.00;;;25.20;36.80;;;;;;6085809;28;81763;-65
2022/12/27 11:35:51;;;;;;;9.00;3.17;;;25.20;36.90;;;;;;6091163;28;85953;-63
2022/12/27 11:38:52;;;;;;;9.20;2.92;;;25.10;37.70;;;;;;6096303;28;80207;-64
2022/12/27 11:41:53;;;;;;;4.07;2.63;;;25.10;38.50;;;;;;6084574;28;82082;-63
2022/12/27 11:44:53;;;;;;;8.02;2.63;;;25.10;38.90;;;;;;6064738;28;80472;-61
2022/12/27 11:47:54;;;;;;;7.65;3.55;;;25.00;39.30;;;;;;6060170;28;80626;-70
2022/12/27 11:50:54;;;;;;;7.13;3.63;;;25.00;39.60;;;;;;6066022;28;80742;-63
2022/12/27 11:53:55;;;;;;;8.88;3.63;;;24.90;40.10;;;;;;6046628;28;83393;-63
2022/12/27 11:56:56;;;;;;;9.48;3.67;;;24.90;40.30;;;;;;6048440;28;82102;-62
2022/12/27 11:59:56;;;;;;;8.60;3.33;;;24.90;40.60;;;;;;6046381;28;82233;-65
2022/12/27 12:02:57;;;;;;;8.30;3.55;;;24.80;40.60;;;;;;6054823;28;81552;-65
2022/12/27 12:05:57;;;;;;;11.50;3.47;;;24.80;40.80;;;;;;6055568;28;81868;-65
2022/12/27 12:08:58;;;;;;;7.63;3.10;;;24.70;40.70;;;;;;6055969;28;82128;-63
2022/12/27 12:11:58;;;;;;;9.23;3.65;;;24.70;41.00;;;;;;6064036;28;82385;-74
2022/12/27 12:14:59;;;;;;;7.88;3.30;;;24.60;41.30;;;;;;6033316;28;81063;-68
2022/12/27 12:18:00;;;;;;;6.00;3.22;;;24.60;41.80;;;;;;6061421;28;83126;-67
2022/12/27 12:21:00;;;;;;;5.53;3.33;;;24.60;41.80;;;;;;6065170;28;81607;-71
2022/12/27 12:24:01;;;;;;;11.88;3.40;;;24.60;41.80;;;;;;6057217;28;83942;-70
2022/12/27 12:27:01;;;;;;;6.13;3.38;;;24.60;42.00;;;;;;6061432;28;80822;-71
2022/12/27 12:30:02;;;;;;;6.00;3.17;;;24.70;41.80;;;;;;6059886;28;80745;-65
2022/12/27 12:33:03;;;;;;;10.52;3.88;;;24.60;41.80;;;;;;6062169;28;83707;-68
2022/12/27 12:36:03;;;;;;;7.43;3.58;;;24.60;42.00;;;;;;6059905;28;80599;-67
2022/12/27 12:39:04;;;;;;;11.23;4.22;;;24.60;42.20;;;;;;6062113;28;80941;-68
2022/12/27 12:42:04;;;;;;;9.60;4.07;;;24.50;42.30;;;;;;6067011;28;83536;-69
2022/12/27 12:45:05;;;;;;;8.57;4.55;;;24.50;42.40;;;;;;6063919;28;81182;-67
2022/12/27 12:48:05;;;;;;;8.23;3.40;;;24.40;42.60;;;;;;6037726;28;86347;-70
2022/12/27 12:51:06;;;;;;;7.45;3.88;;;24.50;42.70;;;;;;6042813;28;81070;-71
2022/12/27 12:54:07;;;;;;;8.18;3.80;;;24.40;42.70;;;;;;6037315;28;82859;-70
2022/12/27 12:57:07;;;;;;;5.60;3.60;;;24.40;42.60;;;;;;6065590;28;80865;-71
2022/12/27 13:00:08;;;;;;;7.55;3.35;;;24.40;42.50;;;;;;6058755;28;86036;-69
2022/12/27 13:03:09;;;;;;;9.95;4.25;;;24.30;42.70;;;;;;6081668;28;81561;-62
2022/12/27 13:06:10;;;;;;;9.50;4.03;;;24.30;42.80;;;;;;6083498;28;81196;-72
2022/12/27 13:09:10;;;;;;;6.43;3.30;;;24.30;42.60;;;;;;6094116;28;82043;-71
2022/12/27 13:12:11;;;;;;;7.97;4.03;;;24.30;42.80;;;;;;6090036;28;81746;-71
2022/12/27 13:15:12;;;;;;;7.25;3.70;;;24.30;42.80;;;;;;6081195;28;80921;-68
2022/12/27 13:18:12;;;;;;;7.25;3.38;;;24.30;42.90;;;;;;6097315;28;80483;-66
2022/12/27 13:21:13;;;;;;;8.63;3.63;;;24.20;43.00;;;;;;6093513;28;82775;-70
2022/12/27 13:24:13;;;;;;;7.20;3.67;;;24.20;42.90;;;;;;6093015;28;80538;-72
2022/12/27 13:27:14;;;;;;;6.30;3.13;;;24.20;43.00;;;;;;6092522;28;80373;-70
2022/12/27 13:30:14;;;;;;;7.60;3.35;;;24.10;42.80;;;;;;6083739;28;81931;-71
2022/12/27 13:33:15;;;;;;;7.28;4.00;;;24.10;42.80;;;;;;6083614;28;81627;-70
2022/12/27 13:36:15;;;;;;;6.32;3.40;;;24.10;42.70;;;;;;6086156;28;81225;-69
2022/12/27 13:39:16;;;;;;;7.32;3.58;;;24.10;42.70;;;;;;6078710;28;80597;-68
2022/12/27 13:42:16;;;;;;;51.30;10.43;;;24.10;42.70;;;;;;6078573;28;80333;-60
2022/12/27 13:45:17;;;;;;;111.85;24.38;;;24.10;42.60;;;;;;6090340;28;85203;-59
2022/12/27 13:48:17;;;;;;;124.30;27.00;;;24.10;42.70;;;;;;6067771;28;83659;-59
2022/12/27 13:51:18;;;;;;;134.02;29.00;;;24.10;43.00;;;;;;6097508;28;83372;-60
2022/12/27 13:54:18;;;;;;;115.97;26.65;;;24.10;43.10;;;;;;6096865;28;83658;-59
2022/12/27 13:57:19;;;;;;;111.78;25.80;;;24.10;43.30;;;;;;6090506;28;83168;-60
2022/12/27 14:00:20;;;;;;;106.68;25.02;;;24.00;43.90;;;;;;6084010;28;89210;-59
2022/12/27 14:03:20;;;;;;;93.90;23.90;;;24.00;44.10;;;;;;6084381;28;84921;-59
2022/12/27 14:06:21;;;;;;;95.63;23.23;;;24.00;44.30;;;;;;6068076;28;85338;-57
2022/12/27 14:09:21;;;;;;;95.22;21.08;;;24.00;44.80;;;;;;6100091;28;83213;-60
2022/12/27 14:12:22;;;;;;;76.53;18.65;;;24.00;44.50;;;;;;6092810;28;85550;-60
2022/12/27 14:15:22;;;;;;;62.70;17.02;;;24.00;44.50;;;;;;6100573;28;83723;-59
2022/12/27 14:18:23;;;;;;;62.58;16.02;;;24.00;44.30;;;;;;6089549;28;83319;-53
2022/12/27 14:21:23;;;;;;;71.53;16.23;;;24.00;44.10;;;;;;6077446;28;83240;-64
2022/12/27 14:24:24;;;;;;;52.42;14.30;;;23.90;44.10;;;;;;6073936;28;83589;-66
2022/12/27 14:27:24;;;;;;;48.60;12.85;;;24.00;44.10;;;;;;6084208;28;84403;-65
2022/12/27 14:30:25;;;;;;;46.60;13.10;;;23.90;44.50;;;;;;6077672;28;84371;-62
2022/12/27 14:33:25;;;;;;;45.15;11.52;;;23.90;43.60;;;;;;6048554;28;87414;-63
2022/12/27 14:36:26;;;;;;;28.88;9.18;;;23.90;43.30;;;;;;6059431;28;83624;-66
2022/12/27 14:39:26;;;;;;;30.60;9.82;;;23.90;42.80;;;;;;6058381;28;84221;-61
2022/12/27 14:42:27;;;;;;;25.50;7.82;;;23.90;42.80;;;;;;6070329;28;81637;-62
2022/12/27 14:45:27;;;;;;;30.65;7.75;;;23.90;42.70;;;;;;6078540;28;81697;-63
2022/12/27 14:48:28;;;;;;;21.58;7.30;;;23.90;42.30;;;;;;6078912;28;81585;-62
2022/12/27 14:51:29;;;;;;;19.73;7.10;;;23.90;42.30;;;;;;6073212;28;80770;-62
2022/12/27 14:54:29;;;;;;;25.33;7.28;;;23.90;42.10;;;;;;6075286;28;80782;-61
2022/12/27 14:57:30;;;;;;;15.55;5.75;;;23.90;41.40;;;;;;6076061;28;80687;-62
2022/12/27 15:00:30;;;;;;;16.20;5.80;;;23.80;41.30;;;;;;6082608;28;80918;-60
2022/12/27 15:03:31;;;;;;;17.45;5.50;;;23.80;41.20;;;;;;6080100;28;80416;-60
2022/12/27 15:06:31;;;;;;;19.08;6.63;;;23.80;41.30;;;;;;6071522;28;80600;-61
2022/12/27 15:09:32;;;;;;;12.75;5.10;;;23.80;41.10;;;;;;6083417;28;80678;-71
2022/12/27 15:12:32;;;;;;;16.25;5.30;;;23.80;40.90;;;;;;6083319;28;80451;-61
2022/12/27 15:15:33;;;;;;;14.25;5.00;;;23.80;40.70;;;;;;6090545;28;80316;-61
2022/12/27 15:18:34;;;;;;;14.85;5.15;;;23.80;40.70;;;;;;6069732;28;81287;-60
2022/12/27 15:21:34;;;;;;;12.40;4.68;;;23.80;40.50;;;;;;6062347;28;80581;-60
2022/12/27 15:24:35;;;;;;;10.40;4.75;;;23.80;40.10;;;;;;6070938;28;81443;-61
2022/12/27 15:27:35;;;;;;;11.60;4.95;;;23.80;40.10;;;;;;6082467;28;81889;-61
2022/12/27 15:30:36;;;;;;;10.45;5.15;;;23.80;40.10;;;;;;6074821;28;81484;-61
2022/12/27 15:33:36;;;;;;;10.48;4.90;;;23.80;40.00;;;;;;6066139;28;83429;-71
2022/12/27 15:36:37;;;;;;;10.98;4.68;;;23.80;40.20;;;;;;6079535;28;83777;-71
2022/12/27 15:39:37;;;;;;;14.23;4.80;;;23.80;39.70;;;;;;6093292;28;80703;-73
2022/12/27 15:42:38;;;;;;;10.98;5.55;;;23.80;39.90;;;;;;6086360;28;80901;-75
2022/12/27 15:45:38;;;;;;;10.32;5.00;;;23.80;39.60;;;;;;6083053;28;81147;-73
2022/12/27 15:48:39;;;;;;;8.88;4.82;;;23.80;39.40;;;;;;6082655;28;80246;-74
2022/12/27 15:51:39;;;;;;;11.15;5.18;;;23.80;39.70;;;;;;6079238;28;82522;-75
2022/12/27 15:54:40;;;;;;;8.40;4.90;;;23.80;39.50;;;;;;6083805;28;80278;-72
2022/12/27 15:57:40;;;;;;;10.55;4.60;;;23.90;39.20;;;;;;6083013;28;81663;-71
2022/12/27 16:00:41;;;;;;;9.00;4.60;;;23.90;39.10;;;;;;6091239;28;81691;-75
2022/12/27 16:03:42;;;;;;;9.43;5.13;;;24.00;38.90;;;;;;6090829;28;80405;-74
2022/12/27 16:06:42;;;;;;;9.02;4.68;;;24.00;38.60;;;;;;6069409;28;80569;-75
2022/12/27 16:09:43;;;;;;;7.32;4.32;;;24.00;38.80;;;;;;6075289;28;80220;-70
2022/12/27 16:12:44;;;;;;;9.45;4.72;;;24.00;38.80;;;;;;6081459;28;82067;-66
2022/12/27 16:15:46;;;;;;;7.97;4.28;;;24.00;38.40;;;;;;6073894;28;80466;-67
2022/12/27 16:18:47;;;;;;;7.68;4.13;;;24.00;38.30;;;;;;6077511;28;81193;-65
2022/12/27 16:21:47;;;;;;;9.95;4.20;;;24.00;38.10;;;;;;6058109;28;83100;-65
2022/12/27 16:24:48;;;;;;;8.52;3.95;;;24.00;38.40;;;;;;6060950;28;83409;-62
2022/12/27 16:27:48;;;;;;;8.60;4.13;;;24.00;38.40;;;;;;6060210;28;85114;-64
2022/12/27 16:30:49;;;;;;;8.15;4.43;;;24.00;38.20;;;;;;6063327;28;80375;-62
2022/12/27 16:33:49;;;;;;;8.13;4.30;;;24.00;38.40;;;;;;6056954;28;80650;-64
2022/12/27 16:36:50;;;;;;;11.02;4.28;;;24.00;38.30;;;;;;6060276;28;81168;-68
2022/12/27 16:39:50;;;;;;;8.13;4.07;;;24.00;38.10;;;;;;6065194;28;81967;-70
2022/12/27 16:42:51;;;;;;;8.85;3.88;;;24.00;38.00;;;;;;6054219;28;81958;-68
2022/12/27 16:45:52;;;;;;;8.35;4.03;;;24.10;38.50;;;;;;6059280;28;81384;-77
2022/12/27 16:48:52;;;;;;;9.27;4.32;;;24.10;38.70;;;;;;6053120;28;81165;-72
2022/12/27 16:51:53;;;;;;;5.80;3.50;;;24.10;38.60;;;;;;6057527;28;81736;-72
2022/12/27 16:54:53;;;;;;;5.50;3.47;;;24.10;38.90;;;;;;6072263;28;83131;-70
2022/12/27 16:57:54;;;;;;;8.40;3.92;;;24.10;38.60;;;;;;6058473;28;80694;-71
2022/12/27 17:00:55;;;;;;;7.53;4.00;;;24.10;38.50;;;;;;6050202;28;80710;-70
2022/12/27 17:03:55;;;;;;;7.20;3.78;;;24.10;38.60;;;;;;6056739;28;82793;-67
2022/12/27 17:06:56;;;;;;;8.70;4.03;;;24.10;38.60;;;;;;6063030;28;80342;-67
2022/12/27 17:09:57;;;;;;;8.13;4.10;;;24.10;38.50;;;;;;6071936;28;80777;-67
2022/12/27 17:12:57;;;;;;;8.55;4.35;;;24.10;38.10;;;;;;6065125;28;82047;-69
2022/12/27 17:15:58;;;;;;;7.03;3.67;;;24.00;38.20;;;;;;6066191;28;81093;-68
2022/12/27 17:18:58;;;;;;;8.40;3.80;;;24.00;38.10;;;;;;6068525;28;81705;-73
2022/12/27 17:21:59;;;;;;;7.18;3.83;;;24.00;37.90;;;;;;6072209;28;81869;-62
2022/12/27 17:25:00;;;;;;;7.05;4.05;;;24.00;38.40;;;;;;6070368;28;83988;-69